Time;durP1;ratioP1;P1;durP2;ratioP2;P2;SDS_P1;SDS_P2;PMS_P1;PMS_P2;Temp;Humidity;BMP_temperature;BMP_pressure;BME280_temperature;BME280_humidity;BME280_pressure;Samples;Min_cycle;Max_cycle;Signal;HPM_P1;HPM_P2
2022/01/15 00:02:14;;;;;;;49.67;13.67;;;3.10;99.90;;;;;;5051494;28;20278;-78
2022/01/15 00:04:42;;;;;;;40.80;13.67;;;3.10;99.90;;;;;;5050461;28;20444;-77
2022/01/15 00:07:08;;;;;;;44.63;13.53;;;3.10;99.90;;;;;;5047315;28;20106;-78
2022/01/15 00:09:34;;;;;;;49.13;15.27;;;3.10;99.90;;;;;;5057685;28;20296;-79
2022/01/15 00:12:02;;;;;;;44.40;13.17;;;3.10;99.90;;;;;;5049095;28;20009;-80
2022/01/15 00:14:38;;;;;;;49.27;13.30;;;3.00;99.90;;;;;;5050337;28;20151;-78
2022/01/15 00:17:07;;;;;;;42.63;12.33;;;3.10;99.90;;;;;;5058367;28;20287;-77
2022/01/15 00:19:41;;;;;;;45.77;14.30;;;3.10;99.90;;;;;;5051561;28;20370;-78
2022/01/15 00:22:16;;;;;;;45.77;13.97;;;3.10;99.90;;;;;;5050783;28;20593;-79
2022/01/15 00:24:45;;;;;;;48.77;13.43;;;3.10;99.90;;;;;;5051423;28;20286;-79
2022/01/15 00:27:12;;;;;;;42.20;12.13;;;3.10;99.90;;;;;;5066905;28;20287;-80
2022/01/15 00:29:38;;;;;;;44.17;14.07;;;3.10;99.90;;;;;;5047234;28;20311;-78
2022/01/15 00:32:08;;;;;;;44.13;14.70;;;3.20;99.90;;;;;;5055144;28;20475;-79
2022/01/15 00:34:35;;;;;;;41.00;13.67;;;3.00;99.90;;;;;;5084944;28;20288;-80
2022/01/15 00:37:03;;;;;;;41.87;12.73;;;3.00;99.90;;;;;;5050318;28;20275;-78
2022/01/15 00:39:29;;;;;;;45.50;13.83;;;3.00;99.90;;;;;;5080408;28;20268;-78
2022/01/15 00:41:55;;;;;;;41.23;12.93;;;2.90;99.90;;;;;;5053206;28;20273;-78
2022/01/15 00:44:23;;;;;;;41.33;13.27;;;2.90;99.90;;;;;;5051127;28;20020;-79
2022/01/15 00:46:49;;;;;;;41.60;11.10;;;2.90;99.90;;;;;;5049400;28;20281;-79
2022/01/15 00:49:14;;;;;;;40.70;12.37;;;2.90;99.90;;;;;;5049117;28;20383;-77
2022/01/15 00:51:43;;;;;;;48.43;13.27;;;2.90;99.90;;;;;;5050834;28;20018;-78
2022/01/15 00:54:11;;;;;;;64.70;14.73;;;2.70;99.90;;;;;;5048985;28;20021;-78
2022/01/15 00:56:39;;;;;;;45.07;12.17;;;2.70;99.90;;;;;;5048592;28;20306;-79
2022/01/15 00:59:05;;;;;;;53.53;11.03;;;2.80;99.90;;;;;;5082571;28;20288;-78
2022/01/15 01:01:31;;;;;;;40.33;12.43;;;2.70;99.90;;;;;;5048292;28;20274;-77
2022/01/15 01:03:59;;;;;;;42.47;11.93;;;2.70;99.90;;;;;;5049834;28;20046;-79
2022/01/15 01:06:25;;;;;;;43.97;12.43;;;2.80;99.90;;;;;;5050458;28;20037;-78
2022/01/15 01:08:51;;;;;;;46.30;13.43;;;2.70;99.90;;;;;;5048515;28;20359;-78
2022/01/15 01:11:23;;;;;;;52.67;13.23;;;2.70;99.90;;;;;;5079827;28;20044;-79
2022/01/15 01:24:33;;;;;;;40.83;12.37;;;2.50;99.90;;;;;;5047462;28;20368;-79
2022/01/15 01:27:09;;;;;;;48.83;12.27;;;2.60;99.90;;;;;;5066456;28;20300;-80
2022/01/15 01:29:47;;;;;;;56.87;12.53;;;2.50;99.90;;;;;;5081773;28;20064;-78
2022/01/15 01:32:32;;;;;;;49.43;12.77;;;2.50;99.90;;;;;;5047975;28;20292;-78
2022/01/15 01:35:06;;;;;;;54.53;13.80;;;2.60;99.90;;;;;;5047220;28;20291;-78
2022/01/15 01:37:37;;;;;;;51.13;12.20;;;2.40;99.90;;;;;;5046092;28;20275;-78
2022/01/15 01:40:18;;;;;;;45.10;13.53;;;2.30;99.90;;;;;;5058275;28;20333;-78
2022/01/15 01:42:54;;;;;;;50.17;12.50;;;2.40;99.90;;;;;;5056226;28;20310;-78
2022/01/15 01:45:20;;;;;;;40.60;11.97;;;2.40;99.90;;;;;;5049257;28;20269;-78
2022/01/15 01:47:48;;;;;;;45.23;11.77;;;2.40;99.90;;;;;;5053615;28;20329;-77
2022/01/15 01:50:23;;;;;;;50.23;13.37;;;2.60;99.90;;;;;;5049994;28;20037;-79
2022/01/15 01:52:51;;;;;;;50.50;12.23;;;2.50;99.90;;;;;;5047933;28;20280;-80
2022/01/15 01:55:22;;;;;;;53.37;12.63;;;2.50;99.90;;;;;;5046075;28;20263;-79
2022/01/15 01:57:48;;;;;;;44.60;12.23;;;2.40;99.90;;;;;;5046939;28;20302;-77
2022/01/15 02:00:16;;;;;;;49.27;12.40;;;2.40;99.90;;;;;;5056733;28;20280;-78
2022/01/15 02:02:42;;;;;;;42.27;11.03;;;2.30;99.90;;;;;;5080760;28;20291;-78
2022/01/15 02:05:08;;;;;;;47.47;10.97;;;2.30;99.90;;;;;;5048773;28;20275;-79
2022/01/15 02:07:35;;;;;;;47.23;10.47;;;2.30;99.90;;;;;;5080729;28;20021;-79
2022/01/15 02:10:03;;;;;;;48.00;11.60;;;2.30;99.90;;;;;;5048008;28;20268;-78
2022/01/15 02:12:29;;;;;;;48.17;12.37;;;2.50;99.90;;;;;;5049690;28;20273;-79
2022/01/15 02:14:54;;;;;;;42.30;10.70;;;2.40;99.90;;;;;;5046646;28;20296;-80
2022/01/15 02:17:22;;;;;;;43.23;11.23;;;2.30;99.90;;;;;;5046692;28;20021;-79
2022/01/15 02:20:10;;;;;;;44.53;11.00;;;2.40;99.90;;;;;;5083211;28;20073;-80
2022/01/15 02:25:22;;;;;;;40.70;9.33;;;2.30;99.90;;;;;;5051419;28;20267;-80
2022/01/15 02:27:52;;;;;;;49.03;10.87;;;2.40;99.90;;;;;;5044396;28;20303;-78
2022/01/15 02:30:18;;;;;;;38.30;10.67;;;2.50;99.90;;;;;;5045665;28;20280;-80
2022/01/15 02:32:43;;;;;;;40.90;11.17;;;2.50;99.90;;;;;;5047991;28;20286;-79
2022/01/15 02:35:13;;;;;;;47.10;12.43;;;2.40;99.90;;;;;;5080928;28;20029;-79
2022/01/15 02:37:38;;;;;;;49.87;10.90;;;2.50;99.90;;;;;;5066171;28;20029;-79
2022/01/15 02:40:05;;;;;;;41.13;11.10;;;2.40;99.90;;;;;;5053382;28;20284;-79
2022/01/15 02:42:33;;;;;;;45.87;12.70;;;2.40;99.90;;;;;;5046874;28;20022;-77
2022/01/15 02:45:01;;;;;;;65.37;12.20;;;2.40;99.90;;;;;;5062993;28;20291;-77
2022/01/15 02:50:11;;;;;;;46.23;10.73;;;2.30;99.90;;;;;;5045597;28;20278;-79
2022/01/15 02:52:37;;;;;;;44.77;10.97;;;2.40;99.90;;;;;;5049433;28;20352;-79
2022/01/15 02:55:13;;;;;;;;;;;;;;;;;;;;;
2022/01/15 02:57:39;;;;;;;33.80;9.10;;;2.40;99.90;;;;;;5046489;28;20037;-79
2022/01/15 03:00:06;;;;;;;37.03;9.20;;;2.40;99.90;;;;;;5046168;28;20292;-79
2022/01/15 03:02:33;;;;;;;38.53;9.70;;;2.30;99.90;;;;;;5060322;28;20032;-78
2022/01/15 03:04:58;;;;;;;35.93;10.00;;;2.20;99.90;;;;;;5048439;28;20351;-81
2022/01/15 03:07:24;;;;;;;26.90;9.03;;;2.20;99.90;;;;;;5080952;28;20271;-79
2022/01/15 03:09:50;;;;;;;24.97;7.87;;;2.20;99.90;;;;;;5051026;28;20239;-79
2022/01/15 03:12:18;;;;;;;28.97;8.77;;;2.20;99.90;;;;;;5052056;28;20549;-78
2022/01/15 03:14:47;;;;;;;29.70;9.90;;;2.10;99.90;;;;;;5050025;28;20028;-78
2022/01/15 03:17:12;;;;;;;22.40;7.80;;;2.10;99.90;;;;;;5050523;28;20339;-78
2022/01/15 03:19:38;;;;;;;26.77;9.20;;;2.20;99.90;;;;;;5050650;28;20286;-78
2022/01/15 03:22:04;;;;;;;30.10;8.10;;;2.20;99.90;;;;;;5050142;28;20045;-79
2022/01/15 03:24:30;;;;;;;32.57;10.03;;;2.20;99.90;;;;;;5051937;28;20021;-78
2022/01/15 03:26:56;;;;;;;32.20;8.37;;;2.20;99.90;;;;;;5051588;28;20360;-80
2022/01/15 03:29:21;;;;;;;26.27;8.67;;;2.10;99.90;;;;;;5054540;28;20052;-79
2022/01/15 03:31:50;;;;;;;33.40;9.27;;;2.10;99.90;;;;;;5053053;28;20036;-80
2022/01/15 03:34:16;;;;;;;27.57;8.47;;;2.20;99.90;;;;;;5057911;28;20089;-78
2022/01/15 03:36:41;;;;;;;24.63;8.10;;;2.10;99.90;;;;;;5058208;28;20291;-78
2022/01/15 03:39:07;;;;;;;33.63;9.13;;;2.10;99.90;;;;;;5059835;28;20025;-78
2022/01/15 03:41:33;;;;;;;26.97;8.50;;;2.20;99.90;;;;;;5055459;28;20036;-78
2022/01/15 03:44:00;;;;;;;31.30;9.47;;;2.20;99.90;;;;;;5057166;28;20025;-79
2022/01/15 03:46:26;;;;;;;32.67;8.67;;;2.10;99.90;;;;;;5056963;28;20028;-83
2022/01/15 03:48:53;;;;;;;29.13;9.13;;;2.10;99.90;;;;;;5051303;28;20316;-79
2022/01/15 03:51:19;;;;;;;33.30;9.43;;;2.20;99.90;;;;;;5058134;28;20016;-78
2022/01/15 03:53:45;;;;;;;33.87;9.07;;;2.20;99.90;;;;;;5049420;28;20296;-80
2022/01/15 03:56:16;;;;;;;29.33;9.00;;;2.10;99.90;;;;;;5066001;28;20289;-79
2022/01/15 03:58:41;;;;;;;36.67;9.07;;;2.10;99.90;;;;;;5051205;28;20284;-78
2022/01/15 04:01:07;;;;;;;25.37;7.67;;;2.10;99.90;;;;;;5054983;28;20278;-79
2022/01/15 04:03:33;;;;;;;28.83;7.83;;;2.10;99.90;;;;;;5065149;28;20038;-80
2022/01/15 04:05:58;;;;;;;31.73;9.30;;;2.00;99.90;;;;;;5050511;28;20053;-81
2022/01/15 04:08:24;;;;;;;34.50;9.47;;;2.10;99.90;;;;;;5050787;28;20568;-79
2022/01/15 04:10:53;;;;;;;36.60;11.07;;;2.20;99.90;;;;;;5049736;28;20025;-80
2022/01/15 04:13:19;;;;;;;34.57;9.50;;;2.00;99.90;;;;;;5057236;28;20053;-79
2022/01/15 04:15:51;;;;;;;30.33;8.67;;;2.20;99.90;;;;;;5048582;28;20287;-78
2022/01/15 04:18:17;;;;;;;34.03;10.50;;;2.10;99.90;;;;;;5055403;28;20083;-80
2022/01/15 04:20:43;;;;;;;29.40;11.37;;;2.00;99.90;;;;;;5053740;28;20378;-78
2022/01/15 04:23:12;;;;;;;36.13;10.30;;;2.00;99.90;;;;;;5084440;28;20308;-79
2022/01/15 04:25:38;;;;;;;30.53;10.27;;;2.00;99.90;;;;;;5053018;28;20032;-80
2022/01/15 04:28:08;;;;;;;32.47;10.03;;;2.10;99.90;;;;;;5085705;28;20292;-78
2022/01/15 04:30:35;;;;;;;37.67;11.17;;;1.90;99.90;;;;;;5084001;28;20018;-78
2022/01/15 04:33:01;;;;;;;42.27;11.00;;;1.80;99.90;;;;;;5056650;28;20308;-81
2022/01/15 04:35:26;;;;;;;29.23;10.47;;;1.80;99.90;;;;;;5081709;28;20299;-78
2022/01/15 04:38:02;;;;;;;26.70;10.53;;;1.80;99.90;;;;;;5050618;28;20121;-80
2022/01/15 04:40:28;;;;;;;29.17;9.77;;;1.80;99.90;;;;;;5050698;28;20017;-81
2022/01/15 04:42:57;;;;;;;25.60;10.53;;;1.80;99.90;;;;;;5059446;28;20287;-79
2022/01/15 04:45:25;;;;;;;31.30;10.40;;;1.90;99.90;;;;;;5052936;28;20036;-78
2022/01/15 04:47:51;;;;;;;26.97;10.50;;;1.70;99.90;;;;;;5083855;28;20299;-79
2022/01/15 04:50:18;;;;;;;33.33;11.40;;;1.70;99.90;;;;;;5050753;28;20286;-79
2022/01/15 04:52:44;;;;;;;35.07;12.60;;;1.90;99.90;;;;;;5050936;28;20053;-78
2022/01/15 04:55:14;;;;;;;33.40;10.90;;;1.80;99.90;;;;;;5051575;28;20283;-78
2022/01/15 04:57:41;;;;;;;29.17;10.27;;;1.80;99.90;;;;;;5081204;28;20280;-78
2022/01/15 05:00:14;;;;;;;26.77;10.23;;;1.80;99.90;;;;;;5058228;28;20302;-77
2022/01/15 05:02:40;;;;;;;27.03;10.27;;;1.70;99.90;;;;;;5049745;28;20504;-80
2022/01/15 05:05:07;;;;;;;26.23;8.70;;;1.70;99.90;;;;;;5047601;28;20277;-79
2022/01/15 05:07:33;;;;;;;36.10;11.60;;;1.70;99.90;;;;;;5055194;28;20086;-78
2022/01/15 05:09:58;;;;;;;26.60;10.00;;;1.70;99.90;;;;;;5050719;28;20276;-79
2022/01/15 05:12:31;;;;;;;21.00;8.93;;;1.70;99.90;;;;;;5048331;28;20028;-79
2022/01/15 05:14:57;;;;;;;21.13;7.97;;;1.60;99.90;;;;;;5052988;28;20093;-79
2022/01/15 05:17:25;;;;;;;24.73;9.30;;;1.60;99.90;;;;;;5070065;28;20025;-81
2022/01/15 05:19:51;;;;;;;25.53;8.47;;;1.60;99.90;;;;;;5056437;28;20041;-78
2022/01/15 05:22:17;;;;;;;18.10;7.40;;;1.60;99.90;;;;;;5052921;28;20330;-80
2022/01/15 05:24:42;;;;;;;28.93;8.83;;;1.50;99.90;;;;;;5048596;28;20029;-78
2022/01/15 05:27:08;;;;;;;16.30;6.50;;;1.40;99.90;;;;;;5044464;28;20528;-78
2022/01/15 05:29:34;;;;;;;20.10;7.97;;;1.50;99.90;;;;;;5056868;28;20028;-78
2022/01/15 05:32:02;;;;;;;22.27;8.60;;;1.60;99.90;;;;;;5056378;28;20020;-77
2022/01/15 05:34:30;;;;;;;24.27;9.57;;;1.50;99.90;;;;;;5050131;28;20040;-79
2022/01/15 05:36:56;;;;;;;20.30;7.23;;;1.60;99.90;;;;;;5052878;28;20276;-78
2022/01/15 05:39:22;;;;;;;23.03;8.07;;;1.50;99.90;;;;;;5057123;28;20327;-78
2022/01/15 05:41:47;;;;;;;29.50;8.90;;;1.40;99.90;;;;;;5058272;28;20028;-79
2022/01/15 05:44:13;;;;;;;21.63;9.03;;;1.40;99.90;;;;;;5067438;28;20022;-80
2022/01/15 05:46:39;;;;;;;28.97;9.50;;;1.30;99.90;;;;;;5050311;28;20049;-79
2022/01/15 05:49:04;;;;;;;22.60;9.87;;;1.50;99.90;;;;;;5051808;28;20068;-80
2022/01/15 05:51:33;;;;;;;25.13;8.87;;;1.50;99.90;;;;;;5052373;28;20156;-79
2022/01/15 05:54:00;;;;;;;24.90;9.50;;;1.50;99.90;;;;;;5056065;28;20030;-78
2022/01/15 05:56:27;;;;;;;22.90;8.93;;;1.40;99.90;;;;;;5048378;28;20268;-79
2022/01/15 05:58:53;;;;;;;23.47;8.40;;;1.50;99.90;;;;;;5050092;28;20280;-79
2022/01/15 06:01:20;;;;;;;24.07;9.43;;;1.40;99.90;;;;;;5053020;28;20270;-78
2022/01/15 06:03:46;;;;;;;24.00;8.90;;;1.50;99.90;;;;;;5057794;28;20327;-77
2022/01/15 06:06:12;;;;;;;19.63;8.47;;;1.50;99.90;;;;;;5052501;28;20323;-82
2022/01/15 06:08:38;;;;;;;25.23;9.43;;;1.50;99.90;;;;;;5048065;28;20812;-78
2022/01/15 06:11:06;;;;;;;25.27;7.47;;;1.50;99.90;;;;;;5066041;28;20025;-79
2022/01/15 06:13:32;;;;;;;22.57;8.33;;;1.60;99.90;;;;;;5050174;28;20025;-79
2022/01/15 06:15:58;;;;;;;24.70;8.87;;;1.50;99.90;;;;;;5047079;28;20283;-81
2022/01/15 06:18:23;;;;;;;21.03;8.63;;;1.50;99.90;;;;;;5056763;28;20029;-78
2022/01/15 06:20:49;;;;;;;26.10;9.93;;;1.50;99.90;;;;;;5050424;28;20009;-79
2022/01/15 06:23:15;;;;;;;23.20;8.70;;;1.60;99.90;;;;;;5054495;28;20134;-80
2022/01/15 06:25:40;;;;;;;22.53;9.00;;;1.60;99.90;;;;;;5051763;28;20030;-79
2022/01/15 06:28:06;;;;;;;26.27;9.67;;;1.60;99.90;;;;;;5047451;28;20192;-78
2022/01/15 06:30:32;;;;;;;29.43;9.23;;;1.60;99.90;;;;;;5049172;28;20018;-79
2022/01/15 06:32:57;;;;;;;23.40;8.50;;;1.50;99.90;;;;;;5053516;28;20033;-79
2022/01/15 06:35:28;;;;;;;24.93;9.37;;;1.60;99.90;;;;;;5050210;28;20021;-77
2022/01/15 06:37:54;;;;;;;22.57;9.23;;;1.60;99.90;;;;;;5059998;28;20521;-79
2022/01/15 06:40:20;;;;;;;26.60;9.13;;;1.60;99.90;;;;;;5046238;28;20452;-83
2022/01/15 06:42:48;;;;;;;31.23;10.70;;;1.60;99.90;;;;;;5077657;28;20264;-80
2022/01/15 06:45:16;;;;;;;29.73;10.17;;;1.60;99.90;;;;;;5050245;28;20296;-80
2022/01/15 06:47:42;;;;;;;22.97;9.03;;;1.60;99.90;;;;;;5083490;28;20307;-80
2022/01/15 06:50:08;;;;;;;26.60;9.30;;;1.60;99.90;;;;;;5062044;28;20292;-81
2022/01/15 06:52:38;;;;;;;24.40;9.90;;;1.60;99.90;;;;;;5047758;28;20065;-81
2022/01/15 06:55:06;;;;;;;26.03;10.03;;;1.50;99.90;;;;;;5058589;28;20306;-78
2022/01/15 06:57:32;;;;;;;27.53;11.73;;;1.60;99.90;;;;;;5048704;28;20367;-83
2022/01/15 06:59:58;;;;;;;20.43;8.63;;;1.50;99.90;;;;;;5046226;28;20283;-81
2022/01/15 07:02:24;;;;;;;20.93;9.17;;;1.60;99.90;;;;;;5041167;28;20283;-81
2022/01/15 07:04:50;;;;;;;26.03;9.47;;;1.70;99.90;;;;;;5045597;28;20025;-80
2022/01/15 07:07:16;;;;;;;31.47;11.17;;;1.70;99.90;;;;;;5043216;28;20029;-79
2022/01/15 07:09:41;;;;;;;18.73;8.57;;;1.70;99.90;;;;;;5045138;28;20458;-79
2022/01/15 07:12:08;;;;;;;21.70;9.40;;;1.70;99.90;;;;;;5038989;28;20067;-79
2022/01/15 07:14:43;;;;;;;28.23;10.10;;;1.80;99.90;;;;;;5043204;28;20052;-80
2022/01/15 07:17:10;;;;;;;25.13;9.83;;;1.80;99.90;;;;;;5041547;28;20350;-81
2022/01/15 07:19:36;;;;;;;22.90;9.10;;;1.70;99.90;;;;;;5041996;28;20281;-80
2022/01/15 07:22:03;;;;;;;18.70;8.07;;;1.80;99.90;;;;;;5043859;28;20288;-81
2022/01/15 07:24:29;;;;;;;26.50;10.33;;;1.90;99.90;;;;;;5041150;28;20288;-80
2022/01/15 07:26:55;;;;;;;17.70;8.63;;;1.90;99.90;;;;;;5035905;28;20302;-82
2022/01/15 07:29:22;;;;;;;27.83;10.00;;;1.90;99.90;;;;;;5040819;28;20099;-78
2022/01/15 07:31:51;;;;;;;19.40;8.23;;;1.90;99.90;;;;;;5037529;28;20026;-81
2022/01/15 07:34:20;;;;;;;19.20;9.67;;;1.90;99.90;;;;;;5038622;28;20287;-82
2022/01/15 07:36:52;;;;;;;18.67;8.50;;;1.90;99.90;;;;;;5041233;28;20326;-82
2022/01/15 07:39:20;;;;;;;15.85;8.15;;;1.90;99.90;;;;;;5047247;28;20300;-79
2022/01/15 07:41:47;;;;;;;20.93;9.57;;;2.00;99.90;;;;;;5035430;28;20030;-82
2022/01/15 07:44:13;;;;;;;17.70;8.90;;;2.00;99.90;;;;;;5049863;28;20655;-81
2022/01/15 07:46:39;;;;;;;17.33;8.67;;;2.00;99.90;;;;;;5035967;28;20370;-82
2022/01/15 07:49:05;;;;;;;19.67;8.97;;;2.00;99.90;;;;;;5055169;28;20037;-82
2022/01/15 07:51:30;;;;;;;18.80;7.57;;;2.00;99.90;;;;;;5039688;28;20276;-80
2022/01/15 07:53:56;;;;;;;18.10;8.03;;;2.00;99.90;;;;;;5040082;28;20029;-83
2022/01/15 07:56:24;;;;;;;17.37;8.57;;;2.00;99.90;;;;;;5040575;28;20030;-77
2022/01/15 07:58:50;;;;;;;13.97;7.43;;;2.00;99.90;;;;;;5041709;28;20025;-79
2022/01/15 08:01:17;;;;;;;16.73;7.47;;;2.10;99.90;;;;;;5040300;28;20290;-81
2022/01/15 08:03:43;;;;;;;18.03;7.80;;;2.00;99.90;;;;;;5052384;28;20025;-80
2022/01/15 08:06:10;;;;;;;18.20;7.60;;;2.00;99.90;;;;;;5051696;28;20288;-81
2022/01/15 08:08:36;;;;;;;19.43;8.10;;;2.10;99.90;;;;;;5059686;28;20298;-83
2022/01/15 08:11:02;;;;;;;16.53;7.27;;;2.10;99.90;;;;;;5038585;28;20277;-81
2022/01/15 08:13:31;;;;;;;17.57;6.87;;;2.20;99.90;;;;;;5044727;28;20071;-80
2022/01/15 08:16:01;;;;;;;13.33;7.10;;;2.10;99.90;;;;;;5037297;28;20277;-83
2022/01/15 08:18:27;;;;;;;19.30;7.17;;;2.20;99.90;;;;;;5045606;28;20295;-83
2022/01/15 08:20:55;;;;;;;18.40;7.87;;;2.20;99.90;;;;;;5041783;28;20295;-82
2022/01/15 08:23:21;;;;;;;15.73;6.93;;;2.20;99.90;;;;;;5038661;28;20294;-82
2022/01/15 08:25:47;;;;;;;15.40;6.97;;;2.20;99.90;;;;;;5053844;28;20374;-82
2022/01/15 08:28:13;;;;;;;17.63;7.43;;;2.10;99.90;;;;;;5053549;28;20326;-82
2022/01/15 08:30:38;;;;;;;21.20;9.20;;;2.30;99.90;;;;;;5047859;28;20272;-79
2022/01/15 08:33:04;;;;;;;21.90;8.60;;;2.40;99.90;;;;;;5039601;28;20107;-83
2022/01/15 08:35:31;;;;;;;16.87;7.23;;;2.40;99.90;;;;;;5037235;28;20040;-81
2022/01/15 08:37:58;;;;;;;21.23;9.77;;;2.40;99.90;;;;;;5050294;28;20100;-81
2022/01/15 08:40:24;;;;;;;19.70;8.27;;;2.40;99.90;;;;;;5041169;28;20302;-82
2022/01/15 08:42:50;;;;;;;19.53;9.10;;;2.40;99.90;;;;;;5047644;28;20644;-83
2022/01/15 08:45:19;;;;;;;17.37;7.60;;;2.50;99.90;;;;;;5056498;28;20327;-83
2022/01/15 08:47:45;;;;;;;18.50;8.67;;;2.50;99.90;;;;;;5069540;28;20311;-80
2022/01/15 08:50:14;;;;;;;24.43;9.60;;;2.60;99.90;;;;;;5039110;28;20663;-82
2022/01/15 08:52:40;;;;;;;22.47;9.83;;;2.70;99.90;;;;;;5038825;28;20105;-82
2022/01/15 08:55:07;;;;;;;20.93;9.57;;;2.70;99.90;;;;;;5038516;28;20299;-81
2022/01/15 08:57:33;;;;;;;20.43;8.93;;;2.70;99.90;;;;;;5054912;28;20280;-81
2022/01/15 09:00:00;;;;;;;19.50;9.03;;;2.70;99.90;;;;;;5041155;28;20287;-81
2022/01/15 09:02:26;;;;;;;21.73;10.23;;;2.80;99.90;;;;;;5050700;28;20283;-80
2022/01/15 09:04:52;;;;;;;16.33;7.47;;;2.80;99.90;;;;;;5037615;28;20277;-80
2022/01/15 09:07:19;;;;;;;18.67;7.13;;;2.80;99.90;;;;;;5044454;28;20022;-77
2022/01/15 09:09:45;;;;;;;16.50;7.80;;;2.90;99.90;;;;;;5037269;28;20295;-82
2022/01/15 09:12:15;;;;;;;17.17;7.70;;;3.00;99.90;;;;;;5036005;28;20290;-83
2022/01/15 09:14:44;;;;;;;20.47;8.93;;;2.90;99.90;;;;;;5047725;28;20021;-83
2022/01/15 09:17:10;;;;;;;18.77;8.67;;;2.90;99.90;;;;;;5055380;28;20294;-81
2022/01/15 09:19:35;;;;;;;17.57;8.37;;;2.90;99.90;;;;;;5037895;28;20314;-83
2022/01/15 09:22:06;;;;;;;16.20;7.17;;;2.90;99.90;;;;;;5035946;28;20060;-82
2022/01/15 09:24:32;;;;;;;15.40;7.03;;;3.00;99.90;;;;;;5051491;28;20108;-83
2022/01/15 09:32:09;;;;;;;16.53;7.17;;;3.10;99.90;;;;;;5037956;28;20301;-83
2022/01/15 09:34:36;;;;;;;11.87;6.20;;;3.20;99.90;;;;;;5038650;28;20337;-82
2022/01/15 09:37:04;;;;;;;17.63;5.63;;;3.20;99.90;;;;;;5052377;28;20040;-82
2022/01/15 09:39:30;;;;;;;16.87;7.73;;;3.20;99.90;;;;;;5038377;28;20281;-81
2022/01/15 09:41:56;;;;;;;18.47;6.83;;;3.30;99.90;;;;;;5039019;28;20323;-82
2022/01/15 09:44:24;;;;;;;13.70;6.20;;;3.20;99.90;;;;;;5037103;28;20338;-84
2022/01/15 09:46:53;;;;;;;18.87;7.03;;;3.20;99.90;;;;;;5040257;28;20291;-83
2022/01/15 09:49:22;;;;;;;13.33;6.87;;;3.20;99.90;;;;;;5044310;28;20091;-81
2022/01/15 09:51:48;;;;;;;11.30;5.47;;;3.20;99.90;;;;;;5069971;28;20280;-81
2022/01/15 09:54:15;;;;;;;13.57;6.23;;;3.20;99.90;;;;;;5040187;28;22123;-83
2022/01/15 09:56:41;;;;;;;16.87;6.77;;;3.30;99.90;;;;;;5051473;28;20296;-83
2022/01/15 09:59:07;;;;;;;14.97;6.30;;;3.20;99.90;;;;;;5039602;28;20287;-82
2022/01/15 10:01:33;;;;;;;14.43;5.60;;;3.20;99.90;;;;;;5038851;28;20283;-81
2022/01/15 10:04:00;;;;;;;13.33;6.10;;;3.20;99.90;;;;;;5042481;28;20025;-83
2022/01/15 10:06:26;;;;;;;12.27;5.93;;;3.20;99.90;;;;;;5039071;28;20037;-83
2022/01/15 10:08:59;;;;;;;19.10;6.80;;;3.30;99.90;;;;;;5033265;28;20295;-83
2022/01/15 10:11:45;;;;;;;14.07;5.83;;;3.20;99.90;;;;;;5043593;28;20271;-81
2022/01/15 10:14:23;;;;;;;17.80;6.50;;;3.30;99.90;;;;;;5037087;28;20279;-83
2022/01/15 10:16:49;;;;;;;10.70;4.97;;;3.50;99.90;;;;;;5072273;28;20287;-82
2022/01/15 10:19:32;;;;;;;12.37;5.17;;;3.40;99.90;;;;;;5058506;28;20319;-84
2022/01/15 10:22:08;;;;;;;13.87;6.97;;;3.40;99.90;;;;;;5074941;28;20033;-80
2022/01/15 10:24:35;;;;;;;12.03;6.07;;;3.50;99.90;;;;;;5046862;28;20728;-82
2022/01/15 10:27:26;;;;;;;10.50;5.53;;;3.50;99.90;;;;;;5039202;28;20394;-81
2022/01/15 10:30:01;;;;;;;12.80;5.67;;;3.50;99.90;;;;;;5043794;28;20392;-82
2022/01/15 10:32:32;;;;;;;11.90;5.97;;;3.50;99.90;;;;;;5048073;28;20340;-81
2022/01/15 10:34:58;;;;;;;10.43;5.70;;;3.60;99.90;;;;;;5057904;28;20124;-83
2022/01/15 10:37:37;;;;;;;16.80;6.43;;;3.70;99.90;;;;;;5040760;28;20339;-82
2022/01/15 10:40:12;;;;;;;13.27;5.50;;;3.80;99.90;;;;;;5042707;28;20093;-83
2022/01/15 10:42:39;;;;;;;10.63;5.33;;;3.80;99.90;;;;;;5042089;28;20033;-81
2022/01/15 10:45:17;;;;;;;8.87;5.57;;;3.70;99.90;;;;;;5060547;28;20055;-82
2022/01/15 10:48:04;;;;;;;10.30;5.17;;;3.70;99.90;;;;;;5039326;28;20025;-81
2022/01/15 10:50:38;;;;;;;10.10;5.23;;;3.60;99.90;;;;;;5058302;28;20025;-82
2022/01/15 10:53:13;;;;;;;8.97;4.87;;;3.60;99.90;;;;;;5053874;28;20272;-81
2022/01/15 10:55:49;;;;;;;11.80;5.33;;;3.70;99.90;;;;;;5048224;28;20277;-80
2022/01/15 10:58:29;;;;;;;10.67;5.03;;;3.60;99.90;;;;;;5047493;28;20280;-81
2022/01/15 11:01:01;;;;;;;14.37;6.47;;;3.50;99.90;;;;;;5041775;28;20029;-82
2022/01/15 11:03:43;;;;;;;20.00;6.72;;;3.60;99.90;;;;;;5059316;28;20299;-81
2022/01/15 11:06:09;;;;;;;9.40;4.90;;;3.80;99.90;;;;;;5049412;28;20047;-81
2022/01/15 11:08:39;;;;;;;8.70;4.77;;;3.70;99.90;;;;;;5042876;28;20061;-83
2022/01/15 11:11:13;;;;;;;9.13;4.57;;;3.80;99.90;;;;;;5047091;28;20044;-84
2022/01/15 11:13:48;;;;;;;12.17;4.73;;;3.90;99.90;;;;;;5056677;28;20530;-82
2022/01/15 11:16:29;;;;;;;9.80;4.70;;;4.00;99.90;;;;;;5039918;28;20295;-82
2022/01/15 11:18:56;;;;;;;9.27;4.83;;;3.80;99.90;;;;;;5039439;28;20025;-83
2022/01/15 11:21:29;;;;;;;7.43;4.43;;;3.90;99.90;;;;;;5040064;28;20029;-83
2022/01/15 11:24:02;;;;;;;8.17;4.97;;;3.90;99.90;;;;;;5053148;28;20034;-81
2022/01/15 11:26:32;;;;;;;12.00;4.70;;;3.80;99.90;;;;;;5041261;28;20030;-81
2022/01/15 11:29:00;;;;;;;12.07;5.00;;;3.90;99.90;;;;;;5039303;28;20055;-84
2022/01/15 11:31:33;;;;;;;12.50;5.77;;;3.90;99.90;;;;;;5046523;28;20057;-83
2022/01/15 11:34:09;;;;;;;8.65;5.05;;;4.10;99.90;;;;;;5041275;28;20022;-82
2022/01/15 11:36:40;;;;;;;9.90;4.60;;;4.10;99.90;;;;;;5037080;28;20045;-80
2022/01/15 11:39:22;;;;;;;10.50;4.67;;;4.10;99.90;;;;;;5042747;28;20118;-82
2022/01/15 11:42:02;;;;;;;11.10;4.93;;;4.00;99.90;;;;;;5042980;28;20055;-83
2022/01/15 11:44:40;;;;;;;10.60;5.47;;;3.90;99.90;;;;;;5056967;28;20033;-80
2022/01/15 11:47:21;;;;;;;7.97;4.97;;;4.00;99.90;;;;;;5041873;28;20051;-84
2022/01/15 11:49:59;;;;;;;9.67;4.57;;;4.20;99.90;;;;;;5059827;28;20041;-81
2022/01/15 11:52:34;;;;;;;11.47;5.40;;;4.30;99.90;;;;;;5057617;28;20068;-81
2022/01/15 11:55:03;;;;;;;8.83;4.73;;;4.30;99.90;;;;;;5045404;28;20028;-81
2022/01/15 11:57:34;;;;;;;9.33;4.93;;;4.20;99.90;;;;;;5053145;28;20021;-81
2022/01/15 12:00:08;;;;;;;14.73;5.67;;;4.20;99.90;;;;;;5043808;28;20073;-81
2022/01/15 12:02:40;;;;;;;10.07;4.50;;;4.30;99.90;;;;;;5058556;28;20033;-83
2022/01/15 12:05:18;;;;;;;16.88;6.47;;;4.10;99.90;;;;;;5049172;28;20053;-84
2022/01/15 12:07:45;;;;;;;11.70;4.70;;;4.00;99.90;;;;;;5043964;28;20029;-82
2022/01/15 12:10:20;;;;;;;10.87;4.93;;;3.90;99.90;;;;;;5044888;28;20029;-81
2022/01/15 12:12:46;;;;;;;11.97;4.87;;;3.90;99.90;;;;;;5040480;28;20481;-83
2022/01/15 12:15:19;;;;;;;17.70;5.03;;;4.10;99.90;;;;;;5050648;28;20119;-82
2022/01/15 12:17:50;;;;;;;;;;;4.10;99.90;;;;;;5041185;28;20093;-85
2022/01/15 12:20:25;;;;;;;12.47;5.30;;;4.10;99.90;;;;;;5040839;28;19941;-81
2022/01/15 12:22:59;;;;;;;14.60;6.20;;;4.20;99.90;;;;;;5049610;28;20051;-82
2022/01/15 12:25:25;;;;;;;9.53;5.30;;;4.20;99.90;;;;;;5049826;28;20033;-83
2022/01/15 12:27:58;;;;;;;12.03;4.87;;;4.30;99.90;;;;;;5050773;28;20040;-81
2022/01/15 12:30:29;;;;;;;11.40;5.38;;;4.40;99.90;;;;;;5044954;28;20025;-84
2022/01/15 12:32:57;;;;;;;8.57;5.33;;;4.50;99.90;;;;;;5045689;28;20021;-83
2022/01/15 12:35:25;;;;;;;11.07;4.83;;;4.40;99.90;;;;;;5039792;28;20025;-81
2022/01/15 12:38:05;;;;;;;10.17;4.73;;;4.50;99.90;;;;;;5044997;28;20021;-81
2022/01/15 12:40:33;;;;;;;9.80;4.90;;;4.60;99.90;;;;;;5045438;28;20026;-79
2022/01/15 12:43:03;;;;;;;15.07;5.23;;;4.50;99.90;;;;;;5051200;28;20034;-82
2022/01/15 12:45:29;;;;;;;8.63;5.10;;;4.50;99.90;;;;;;5043118;28;20028;-80
2022/01/15 12:47:56;;;;;;;9.23;4.17;;;4.50;99.90;;;;;;5045036;28;20053;-80
2022/01/15 12:50:22;;;;;;;7.40;3.77;;;4.40;99.90;;;;;;5042201;28;20021;-80
2022/01/15 12:53:06;;;;;;;6.07;4.17;;;4.40;99.90;;;;;;5041795;28;20194;-80
2022/01/15 12:55:36;;;;;;;10.90;4.87;;;4.20;99.90;;;;;;5038607;28;20022;-78
2022/01/15 12:58:04;;;;;;;10.87;4.77;;;4.30;99.90;;;;;;5055971;28;20160;-83
2022/01/15 13:00:32;;;;;;;9.80;5.23;;;4.40;99.90;;;;;;5045945;28;20048;-82
2022/01/15 13:03:12;;;;;;;11.87;5.47;;;4.40;99.90;;;;;;5042113;28;20037;-85
2022/01/15 13:05:43;;;;;;;13.70;6.10;;;4.40;99.90;;;;;;5043344;28;20097;-81
2022/01/15 13:08:13;;;;;;;8.27;5.03;;;4.50;99.90;;;;;;5061980;28;20124;-82
2022/01/15 13:10:45;;;;;;;11.23;4.93;;;4.50;99.90;;;;;;5059093;28;20026;-81
2022/01/15 13:13:22;;;;;;;8.70;4.65;;;4.60;99.90;;;;;;5052212;28;20024;-82
2022/01/15 13:15:56;;;;;;;8.10;4.57;;;4.50;99.90;;;;;;5052993;28;20028;-81